Time;durP1;ratioP1;P1;durP2;ratioP2;P2;SDS_P1;SDS_P2;PMS_P1;PMS_P2;Temp;Humidity;BMP_temperature;BMP_pressure;BME280_temperature;BME280_humidity;BME280_pressure;Samples;Min_cycle;Max_cycle;Signal;HPM_P1;HPM_P2
2023/10/05 00:03:05;;;;;;;;;;;;;;;;;;5053753;28;20370;-66
2023/10/05 00:05:32;;;;;;;;;;;;;;;;;;5054074;28;19932;-67
2023/10/05 00:07:58;;;;;;;;;;;;;;;;;;5052173;28;20485;-67
2023/10/05 00:10:24;;;;;;;;;;;;;;;;;;5053516;28;20016;-66
2023/10/05 00:12:50;;;;;;;;;;;;;;;;;;5035909;28;19927;-68
2023/10/05 00:15:18;;;;;;;;;;;;;;;;;;5053532;28;20361;-67
2023/10/05 00:17:46;;;;;;;;;;;;;;;;;;5053561;28;19978;-65
2023/10/05 00:20:23;;;;;;;;;;;;;;;;;;5053484;28;19921;-66
2023/10/05 00:22:51;;;;;;;;;;;;;;;;;;5051719;28;20408;-67
2023/10/05 00:25:17;;;;;;;;;;;;;;;;;;5052804;28;20011;-66
2023/10/05 00:27:51;;;;;;;;;;;;;;;;;;5051176;28;19932;-67
2023/10/05 00:30:17;;;;;;;;;;;;;;;;;;5051651;28;19977;-67
2023/10/05 00:32:52;;;;;;;;;;;;;;;;;;5050801;28;20011;-67
2023/10/05 00:35:24;;;;;;;;;;;;;;;;;;5052277;28;20534;-66
2023/10/05 00:37:50;;;;;;;;;;;;;;;;;;5052093;28;20073;-66
2023/10/05 00:41:17;;;;;;;;;;;;;;;;;;5052020;28;19932;-66
2023/10/05 00:45:46;;;;;;;;;;;;;;;;;;5050735;28;20007;-66
2023/10/05 00:51:04;;;;;;;;;;;;;;;;;;5053044;28;19920;-66
2023/10/05 00:53:29;;;;;;;;;;;;;;;;;;5052826;28;19932;-66
2023/10/05 00:56:07;;;;;;;;;;;;;;;;;;5053057;28;19925;-66
2023/10/05 00:58:37;;;;;;;;;;;;;;;;;;5052939;28;19929;-67
2023/10/05 01:01:14;;;;;;;;;;;;;;;;;;5053052;28;20015;-67
2023/10/05 01:04:18;;;;;;;;;;;;;;;;;;5052796;28;19927;-66
2023/10/05 01:06:40;;;;;;;;;;;;;;;;;;5052520;28;20023;-67
2023/10/05 01:09:07;;;;;;;;;;;;;;;;;;5051731;28;19921;-66
2023/10/05 01:11:54;;;;;;;;;;;;;;;;;;5051999;28;19925;-66
2023/10/05 01:14:23;;;;;;;;;;;;;;;;;;5052196;28;19925;-66
2023/10/05 01:16:49;;;;;;;;;;;;;;;;;;5051692;28;19961;-67
2023/10/05 01:19:15;;;;;;;;;;;;;;;;;;5051299;28;19970;-67
2023/10/05 01:21:43;;;;;;;;;;;;;;;;;;5050887;28;19982;-67
2023/10/05 01:24:10;;;;;;;;;;;;;;;;;;5051416;28;19924;-67
2023/10/05 01:26:37;;;;;;;;;;;;;;;;;;5051526;28;19927;-67
2023/10/05 01:29:03;;;;;;;;;;;;;;;;;;5050222;28;19921;-66
2023/10/05 01:31:29;;;;;;;;;;;;;;;;;;5051366;28;19924;-66
2023/10/05 01:33:55;;;;;;;;;;;;;;;;;;5051199;28;19928;-65
2023/10/05 01:36:23;;;;;;;;;;;;;;;;;;5051252;28;20286;-66
2023/10/05 01:38:49;;;;;;;;;;;;;;;;;;5051849;28;20050;-67
2023/10/05 01:41:16;;;;;;;;;;;;;;;;;;5051994;28;20015;-66
2023/10/05 01:43:42;;;;;;;;;;;;;;;;;;5050561;28;19925;-66
2023/10/05 01:46:10;;;;;;;;;;;;;;;;;;5052107;28;20279;-66
2023/10/05 01:48:36;;;;;;;;;;;;;;;;;;5050689;28;19927;-67
2023/10/05 01:51:15;;;;;;;;;;;;;;;;;;5051955;28;19978;-67
2023/10/05 01:53:43;;;;;;;;;;;;;;;;;;5051930;28;19925;-67
2023/10/05 01:56:08;;;;;;;;;;;;;;;;;;5052004;28;19921;-67
2023/10/05 01:58:36;;;;;;;;;;;;;;;;;;5049889;28;20035;-67
2023/10/05 02:01:03;;;;;;;;;;;;;;;;;;5051336;28;19931;-66
2023/10/05 02:03:29;;;;;;;;;;;;;;;;;;5050882;28;19932;-67
2023/10/05 02:05:57;;;;;;;;;;;;;;;;;;5051230;28;19928;-67
2023/10/05 02:08:24;;;;;;;;;;;;;;;;;;5051077;28;20032;-67
2023/10/05 02:10:50;;;;;;;;;;;;;;;;;;5051073;28;20015;-67
2023/10/05 02:13:16;;;;;;;;;;;;;;;;;;5051220;28;20297;-66
2023/10/05 02:15:42;;;;;;;;;;;;;;;;;;5049847;28;19924;-67
2023/10/05 02:18:28;;;;;;;;;;;;;;;;;;5050712;28;20016;-67
2023/10/05 02:21:17;;;;;;;;;;;;;;;;;;5051100;28;19975;-66
2023/10/05 02:23:44;;;;;;;;;;;;;;;;;;5050741;28;19963;-67
2023/10/05 02:26:10;;;;;;;;;;;;;;;;;;5050989;28;19971;-67
2023/10/05 02:28:39;;;;;;;;;;;;;;;;;;5049391;28;19925;-67
2023/10/05 02:31:12;;;;;;;;;;;;;;;;;;5050957;28;19979;-67
2023/10/05 02:33:39;;;;;;;;;;;;;;;;;;5054565;28;20382;-67
2023/10/05 02:36:11;;;;;;;;;;;;;;;;;;5053377;28;19982;-68
2023/10/05 02:38:37;;;;;;;;;;;;;;;;;;5054371;28;20370;-67
2023/10/05 02:41:04;;;;;;;;;;;;;;;;;;5055100;28;19979;-67
2023/10/05 02:43:29;;;;;;;;;;;;;;;;;;5054904;28;20358;-67
2023/10/05 02:45:58;;;;;;;;;;;;;;;;;;5054708;28;19960;-67
2023/10/05 02:48:24;;;;;;;;;;;;;;;;;;5055354;28;19999;-67
2023/10/05 02:50:52;;;;;;;;;;;;;;;;;;5054889;28;19924;-66
2023/10/05 02:53:22;;;;;;;;;;;;;;;;;;5054779;28;19991;-67
2023/10/05 02:55:51;;;;;;;;;;;;;;;;;;5054657;28;19972;-66
2023/10/05 02:58:17;;;;;;;;;;;;;;;;;;5054324;28;20616;-66
2023/10/05 03:00:44;;;;;;;;;;;;;;;;;;5054721;28;19925;-66
2023/10/05 03:03:14;;;;;;;;;;;;;;;;;;5054445;28;19929;-66
2023/10/05 03:05:41;;;;;;;;;;;;;;;;;;5054270;28;19983;-66
2023/10/05 03:08:09;;;;;;;;;;;;;;;;;;5054247;28;20562;-67
2023/10/05 03:10:35;;;;;;;;;;;;;;;;;;5052866;28;19929;-67
2023/10/05 03:13:03;;;;;;;;;;;;;;;;;;5054498;28;19932;-66
2023/10/05 03:15:29;;;;;;;;;;;;;;;;;;5054071;28;19925;-67
2023/10/05 03:17:57;;;;;;;;;;;;;;;;;;5054032;28;19936;-67
2023/10/05 03:20:24;;;;;;;;;;;;;;;;;;5053853;28;19924;-65
2023/10/05 03:22:54;;;;;;;;;;;;;;;;;;5054408;28;19931;-65
2023/10/05 03:25:21;;;;;;;;;;;;;;;;;;5054164;28;19982;-67
2023/10/05 03:27:48;;;;;;;;;;;;;;;;;;5054397;28;19924;-66
2023/10/05 03:30:14;;;;;;;;;;;;;;;;;;5069846;28;19947;-66
2023/10/05 03:32:40;;;;;;;;;;;;;;;;;;5069790;28;19924;-67
2023/10/05 03:35:08;;;;;;;;;;;;;;;;;;5054472;28;19996;-65
2023/10/05 03:37:34;;;;;;;;;;;;;;;;;;5054494;28;19929;-66
2023/10/05 03:42:29;;;;;;;;;;;;;;;;;;5054499;28;20023;-66
2023/10/05 03:45:08;;;;;;;;;;;;;;;;;;5053556;28;20012;-65
2023/10/05 03:47:37;;;;;;;;;;;;;;;;;;5054191;28;19925;-67
2023/10/05 03:50:03;;;;;;;;;;;;;;;;;;5054131;28;19928;-67
2023/10/05 03:52:29;;;;;;;;;;;;;;;;;;5054286;28;19929;-66
2023/10/05 03:54:55;;;;;;;;;;;;;;;;;;5054135;28;19927;-66
2023/10/05 03:57:21;;;;;;;;;;;;;;;;;;5069414;28;19929;-66
2023/10/05 03:59:47;;;;;;;;;;;;;;;;;;5052748;28;19925;-67
2023/10/05 04:02:14;;;;;;;;;;;;;;;;;;5052563;28;19921;-67
2023/10/05 04:04:44;;;;;;;;;;;;;;;;;;5054138;28;19924;-67
2023/10/05 04:07:10;;;;;;;;;;;;;;;;;;5053922;28;19921;-67
2023/10/05 04:09:36;;;;;;;;;;;;;;;;;;5053930;28;20023;-66
2023/10/05 04:12:05;;;;;;;;;;;;;;;;;;5053790;28;20454;-66
2023/10/05 04:14:33;;;;;;;;;;;;;;;;;;5052452;28;19928;-66
2023/10/05 04:17:07;;;;;;;;;;;;;;;;;;5053443;28;20431;-66
2023/10/05 04:19:33;;;;;;;;;;;;;;;;;;5053940;28;19921;-66
2023/10/05 04:21:59;;;;;;;;;;;;;;;;;;5035537;28;19951;-66
2023/10/05 04:24:27;;;;;;;;;;;;;;;;;;5053772;28;19940;-67
2023/10/05 04:26:53;;;;;;;;;;;;;;;;;;5053569;28;19921;-66
2023/10/05 04:29:23;;;;;;;;;;;;;;;;;;5052067;28;20291;-66
2023/10/05 04:31:49;;;;;;;;;;;;;;;;;;5053569;28;19952;-66
2023/10/05 04:34:18;;;;;;;;;;;;;;;;;;5035672;28;20409;-66
2023/10/05 04:36:44;;;;;;;;;;;;;;;;;;5053224;28;20391;-66
2023/10/05 04:39:12;;;;;;;;;;;;;;;;;;5053173;28;20019;-66
2023/10/05 04:41:49;;;;;;;;;;;;;;;;;;5051867;28;19927;-66
2023/10/05 04:44:15;;;;;;;;;;;;;;;;;;5053196;28;20286;-66
2023/10/05 04:46:48;;;;;;;;;;;;;;;;;;5051618;28;19999;-66
2023/10/05 04:49:14;;;;;;;;;;;;;;;;;;5053386;28;19931;-66
2023/10/05 04:51:41;;;;;;;;;;;;;;;;;;5053157;28;19928;-66
2023/10/05 04:54:10;;;;;;;;;;;;;;;;;;5052833;28;20432;-66
2023/10/05 05:01:56;;;;;;;;;;;;;;;;;;5051514;28;19927;-67
2023/10/05 05:07:00;;;;;;;;;;;;;;;;;;5051363;28;19971;-67
2023/10/05 05:09:29;;;;;;;;;;;;;;;;;;5052845;28;19924;-66
2023/10/05 05:11:56;;;;;;;;;;;;;;;;;;5052672;28;19993;-68
2023/10/05 05:14:23;;;;;;;;;;;;;;;;;;5052736;28;19920;-67
2023/10/05 05:16:52;;;;;;;;;;;;;;;;;;5067671;28;19974;-67
2023/10/05 05:19:18;;;;;;;;;;;;;;;;;;5052549;28;19921;-67
2023/10/05 05:21:44;;;;;;;;;;;;;;;;;;5052530;28;19925;-67
2023/10/05 05:24:13;;;;;;;;;;;;;;;;;;5034562;28;20291;-67
2023/10/05 05:26:39;;;;;;;;;;;;;;;;;;5051671;28;19928;-67
2023/10/05 05:29:05;;;;;;;;;;;;;;;;;;5050206;28;19924;-67
2023/10/05 05:31:31;;;;;;;;;;;;;;;;;;5052029;28;19924;-67
2023/10/05 05:33:59;;;;;;;;;;;;;;;;;;5051053;28;19924;-67
2023/10/05 05:36:25;;;;;;;;;;;;;;;;;;5051413;28;19956;-67
2023/10/05 05:38:51;;;;;;;;;;;;;;;;;;5050992;28;19925;-66
2023/10/05 05:41:19;;;;;;;;;;;;;;;;;;5050948;28;20348;-67
2023/10/05 05:43:45;;;;;;;;;;;;;;;;;;5051163;28;20409;-67
2023/10/05 05:46:13;;;;;;;;;;;;;;;;;;5050814;28;19972;-66
2023/10/05 05:48:40;;;;;;;;;;;;;;;;;;5049277;28;19920;-67
2023/10/05 05:51:10;;;;;;;;;;;;;;;;;;5051156;28;19964;-67
2023/10/05 05:53:36;;;;;;;;;;;;;;;;;;5050465;28;20003;-66
2023/10/05 05:56:03;;;;;;;;;;;;;;;;;;5052147;28;19925;-66
2023/10/05 05:58:29;;;;;;;;;;;;;;;;;;5051619;28;20452;-67
2023/10/05 06:00:55;;;;;;;;;;;;;;;;;;5051982;28;19928;-66
2023/10/05 06:03:21;;;;;;;;;;;;;;;;;;5050368;28;19921;-67
2023/10/05 06:05:50;;;;;;;;;;;;;;;;;;5052059;28;19925;-67
2023/10/05 06:08:16;;;;;;;;;;;;;;;;;;5050031;28;19960;-67
2023/10/05 06:10:43;;;;;;;;;;;;;;;;;;5051469;28;19921;-66
2023/10/05 06:13:12;;;;;;;;;;;;;;;;;;5051002;28;19970;-67
2023/10/05 06:15:38;;;;;;;;;;;;;;;;;;5051079;28;19925;-68
2023/10/05 06:18:04;;;;;;;;;;;;;;;;;;5050599;28;20016;-68
2023/10/05 06:20:29;;;;;;;;;;;;;;;;;;5050988;28;19986;-67
2023/10/05 06:22:55;;;;;;;;;;;;;;;;;;5049464;28;19925;-66
2023/10/05 06:25:21;;;;;;;;;;;;;;;;;;5051091;28;19920;-67
2023/10/05 06:27:47;;;;;;;;;;;;;;;;;;5050147;28;19921;-67
2023/10/05 06:30:13;;;;;;;;;;;;;;;;;;5051746;28;19932;-67
2023/10/05 06:32:39;;;;;;;;;;;;;;;;;;5051603;28;19953;-67
2023/10/05 06:35:08;;;;;;;;;;;;;;;;;;5050077;28;20378;-66
2023/10/05 06:37:34;;;;;;;;;;;;;;;;;;5050034;28;19932;-67
2023/10/05 06:40:00;;;;;;;;;;;;;;;;;;5051095;28;20553;-66
2023/10/05 06:42:26;;;;;;;;;;;;;;;;;;5051656;28;20331;-67
2023/10/05 06:44:52;;;;;;;;;;;;;;;;;;5051484;28;19921;-66
2023/10/05 06:47:51;;;;;;;;;;;;;;;;;;5051270;28;19928;-67
2023/10/05 06:50:10;;;;;;;;;;;;;;;;;;5045994;28;19959;-67
2023/10/05 06:52:39;;;;;;;;;;;;;;;;;;5051180;28;20379;-67
2023/10/05 06:55:07;;;;;;;;;;;;;;;;;;5055744;22;19931;-67
2023/10/05 06:57:33;;;;;;;;;;;;;;;;;;5032885;28;20386;-65
2023/10/05 06:59:59;;;;;;;;;;;;;;;;;;5050839;28;19921;-65
2023/10/05 07:02:25;;;;;;;;;;;;;;;;;;5050298;28;19987;-66
2023/10/05 07:04:50;;;;;;;;;;;;;;;;;;5051462;28;19924;-65
2023/10/05 07:07:16;;;;;;;;;;;;;;;;;;5051925;28;19924;-65
2023/10/05 07:09:42;;;;;;;;;;;;;;;;;;5051461;28;19953;-64
2023/10/05 07:12:09;;;;;;;;;;;;;;;;;;5049978;28;19928;-64
2023/10/05 07:14:36;;;;;;;;;;;;;;;;;;5049881;28;19921;-64
2023/10/05 07:17:02;;;;;;;;;;;;;;;;;;5050951;28;19924;-64
2023/10/05 07:19:28;;;;;;;;;;;;;;;;;;5053005;28;19944;-64
2023/10/05 07:21:54;;;;;;;;;;;;;;;;;;5054517;28;19990;-63
2023/10/05 07:24:20;;;;;;;;;;;;;;;;;;5054612;28;19928;-64
2023/10/05 07:26:45;;;;;;;;;;;;;;;;;;5054525;28;20321;-64
2023/10/05 07:29:14;;;;;;;;;;;;;;;;;;5039873;28;19925;-64
2023/10/05 07:31:41;;;;;;;;;;;;;;;;;;5034485;28;19925;-64
2023/10/05 07:34:07;;;;;;;;;;;;;;;;;;5034696;28;19928;-64
2023/10/05 07:36:33;;;;;;;;;;;;;;;;;;5034335;28;19925;-64
2023/10/05 07:39:00;;;;;;;;;;;;;;;;;;5034560;28;19925;-64
2023/10/05 07:41:28;;;;;;;;;;;;;;;;;;5034390;28;20342;-65
2023/10/05 07:43:54;;;;;;;;;;;;;;;;;;5034416;28;19947;-65
2023/10/05 07:46:20;;;;;;;;;;;;;;;;;;5032966;28;20363;-64
2023/10/05 07:48:47;;;;;;;;;;;;;;;;;;5034075;28;19960;-65
2023/10/05 07:51:13;;;;;;;;;;;;;;;;;;5034442;28;19921;-65
2023/10/05 07:53:39;;;;;;;;;;;;;;;;;;5051670;28;19936;-64
2023/10/05 07:56:05;;;;;;;;;;;;;;;;;;5054092;28;19956;-65
2023/10/05 07:58:31;;;;;;;;;;;;;;;;;;5054107;28;19995;-65
2023/10/05 08:00:57;;;;;;;;;;;;;;;;;;5054276;28;20374;-65
2023/10/05 08:03:23;;;;;;;;;;;;;;;;;;5054460;28;19928;-64
2023/10/05 08:05:49;;;;;;;;;;;;;;;;;;5054288;28;20293;-65
2023/10/05 08:08:15;;;;;;;;;;;;;;;;;;5053187;28;20054;-65
2023/10/05 08:10:41;;;;;;;;;;;;;;;;;;5054120;28;19920;-65
2023/10/05 08:13:07;;;;;;;;;;;;;;;;;;5053842;28;20358;-65
2023/10/05 08:15:34;;;;;;;;;;;;;;;;;;5053552;28;19921;-65
2023/10/05 08:18:00;;;;;;;;;;;;;;;;;;5053650;28;19925;-64
2023/10/05 08:20:26;;;;;;;;;;;;;;;;;;5053970;28;19974;-64
2023/10/05 08:22:52;;;;;;;;;;;;;;;;;;5053760;28;19928;-64
2023/10/05 08:25:19;;;;;;;;;;;;;;;;;;5053822;28;19925;-64
2023/10/05 08:27:48;;;;;;;;;;;;;;;;;;5053717;28;19929;-64
2023/10/05 08:30:14;;;;;;;;;;;;;;;;;;5053164;28;19925;-64
2023/10/05 08:32:40;;;;;;;;;;;;;;;;;;5053704;28;19921;-65
2023/10/05 08:35:18;;;;;;;;;;;;;;;;;;5053282;28;19952;-64
2023/10/05 08:37:49;;;;;;;;;;;;;;;;;;5051989;28;20317;-64
2023/10/05 08:40:30;;;;;;;;;;;;;;;;;;5053503;28;20004;-64
2023/10/05 08:42:56;;;;;;;;;;;;;;;;;;5054078;28;19968;-64
2023/10/05 08:45:23;;;;;;;;;;;;;;;;;;5052721;28;19928;-64
2023/10/05 08:47:49;;;;;;;;;;;;;;;;;;5052769;28;19979;-65
2023/10/05 08:50:15;;;;;;;;;;;;;;;;;;5054005;28;19957;-64
2023/10/05 08:52:41;;;;;;;;;;;;;;;;;;5053728;28;19920;-64
2023/10/05 08:55:07;;;;;;;;;;;;;;;;;;5053471;28;19928;-64
2023/10/05 08:57:33;;;;;;;;;;;;;;;;;;5053556;28;19928;-64
2023/10/05 08:59:59;;;;;;;;;;;;;;;;;;5052440;28;19921;-64
2023/10/05 09:02:25;;;;;;;;;;;;;;;;;;5053694;28;19921;-64
2023/10/05 09:04:51;;;;;;;;;;;;;;;;;;5053843;28;19924;-65
2023/10/05 09:07:17;;;;;;;;;;;;;;;;;;5053520;28;20611;-64
2023/10/05 09:09:53;;;;;;;;;;;;;;;;;;5053714;28;19928;-64
2023/10/05 09:12:32;;;;;;;;;;;;;;;;;;5033550;28;20008;-64
2023/10/05 09:15:02;;;;;;;;;;;;;;;;;;5034040;28;20609;-64
2023/10/05 09:17:27;;;;;;;;;;;;;;;;;;5043598;28;20297;-65
2023/10/05 09:19:55;;;;;;;;;;;;;;;;;;5052092;28;20012;-64
2023/10/05 09:22:23;;;;;;;;;;;;;;;;;;5053083;28;19998;-64
2023/10/05 09:24:48;;;;;;;;;;;;;;;;;;5053159;28;20028;-64
2023/10/05 09:27:16;;;;;;;;;;;;;;;;;;5051831;28;20019;-64
2023/10/05 09:29:41;;;;;;;;;;;;;;;;;;5053315;28;19921;-65
2023/10/05 09:32:11;;;;;;;;;;;;;;;;;;5051677;28;19947;-65
2023/10/05 09:34:38;;;;;;;;;;;;;;;;;;5051402;28;19970;-64
2023/10/05 09:37:05;;;;;;;;;;;;;;;;;;5052726;28;19964;-64
2023/10/05 09:39:31;;;;;;;;;;;;;;;;;;5051631;28;19967;-64
2023/10/05 09:41:57;;;;;;;;;;;;;;;;;;5052404;28;19967;-64
2023/10/05 09:44:28;;;;;;;;;;;;;;;;;;5052717;28;20374;-64
2023/10/05 09:46:54;;;;;;;;;;;;;;;;;;5052843;28;20003;-64
2023/10/05 09:49:21;;;;;;;;;;;;;;;;;;5053043;28;20004;-64
2023/10/05 09:51:48;;;;;;;;;;;;;;;;;;5052741;28;20402;-65
2023/10/05 09:54:14;;;;;;;;;;;;;;;;;;5052555;28;19925;-64
2023/10/05 09:56:41;;;;;;;;;;;;;;;;;;5052533;28;19925;-64
2023/10/05 09:59:15;;;;;;;;;;;;;;;;;;5052442;28;19920;-64
2023/10/05 10:01:42;;;;;;;;;;;;;;;;;;5051062;28;19927;-64
2023/10/05 10:04:08;;;;;;;;;;;;;;;;;;5051930;28;19925;-64
2023/10/05 10:06:35;;;;;;;;;;;;;;;;;;5051966;28;19921;-64
2023/10/05 10:09:10;;;;;;;;;;;;;;;;;;5050900;28;20435;-64
2023/10/05 10:11:36;;;;;;;;;;;;;;;;;;5052275;28;19932;-64
2023/10/05 10:14:06;;;;;;;;;;;;;;;;;;5052159;28;20267;-65
2023/10/05 10:16:32;;;;;;;;;;;;;;;;;;5052164;28;20286;-64
2023/10/05 10:19:04;;;;;;;;;;;;;;;;;;5052127;28;19921;-65
2023/10/05 10:21:30;;;;;;;;;;;;;;;;;;5051770;28;20406;-65
2023/10/05 10:23:56;;;;;;;;;;;;;;;;;;5050362;28;19928;-65
2023/10/05 10:26:24;;;;;;;;;;;;;;;;;;5051968;28;19920;-64
2023/10/05 10:31:21;;;;;;;;;;;;;;;;;;5051726;28;19928;-64
2023/10/05 10:33:51;;;;;;;;;;;;;;;;;;5051037;28;19920;-64
2023/10/05 10:36:22;;;;;;;;;;;;;;;;;;5066304;28;19925;-65
2023/10/05 10:38:51;;;;;;;;;;;;;;;;;;5050826;28;19928;-67
2023/10/05 10:41:17;;;;;;;;;;;;;;;;;;5051259;28;20012;-64
2023/10/05 10:43:55;;;;;;;;;;;;;;;;;;5050849;28;20004;-65
2023/10/05 10:46:21;;;;;;;;;;;;;;;;;;5051019;28;19966;-64
2023/10/05 10:48:47;;;;;;;;;;;;;;;;;;5051721;28;19924;-65
2023/10/05 10:51:15;;;;;;;;;;;;;;;;;;5050965;28;21304;-64
2023/10/05 10:53:41;;;;;;;;;;;;;;;;;;5053783;28;19932;-64
2023/10/05 10:56:17;;;;;;;;;;;;;;;;;;5055365;28;20366;-64
2023/10/05 10:58:44;;;;;;;;;;;;;;;;;;5055449;28;19929;-65
2023/10/05 11:01:28;;;;;;;;;;;;;;;;;;5054285;28;19920;-65
2023/10/05 11:03:55;;;;;;;;;;;;;;;;;;5055360;28;20015;-64
2023/10/05 11:06:23;;;;;;;;;;;;;;;;;;5055295;28;19928;-64
2023/10/05 11:08:49;;;;;;;;;;;;;;;;;;5053891;28;19974;-64
2023/10/05 11:11:15;;;;;;;;;;;;;;;;;;5055205;28;19921;-64
2023/10/05 11:13:45;;;;;;;;;;;;;;;;;;5055142;28;20485;-64
2023/10/05 11:16:11;;;;;;;;;;;;;;;;;;5053460;28;19921;-64
2023/10/05 11:18:39;;;;;;;;;;;;;;;;;;5054376;28;19976;-64
2023/10/05 11:21:05;;;;;;;;;;;;;;;;;;5054742;28;19925;-65
2023/10/05 11:23:32;;;;;;;;;;;;;;;;;;5054177;28;20370;-64
2023/10/05 11:26:17;;;;;;;;;;;;;;;;;;5052953;28;20015;-64
2023/10/05 11:28:43;;;;;;;;;;;;;;;;;;5054025;28;19921;-64
2023/10/05 11:31:11;;;;;;;;;;;;;;;;;;5053852;28;19925;-64
2023/10/05 11:33:37;;;;;;;;;;;;;;;;;;5054417;28;19920;-64
2023/10/05 11:36:17;;;;;;;;;;;;;;;;;;5052574;28;20286;-65
2023/10/05 11:38:43;;;;;;;;;;;;;;;;;;5054215;28;20019;-65
2023/10/05 11:41:09;;;;;;;;;;;;;;;;;;5054934;28;20399;-65
2023/10/05 11:43:35;;;;;;;;;;;;;;;;;;5054742;28;19921;-65
2023/10/05 11:46:12;;;;;;;;;;;;;;;;;;5069953;28;19921;-65
2023/10/05 11:48:42;;;;;;;;;;;;;;;;;;5054500;28;19921;-65
2023/10/05 11:51:10;;;;;;;;;;;;;;;;;;5054583;28;19932;-64
2023/10/05 11:53:36;;;;;;;;;;;;;;;;;;5054419;28;20054;-65
2023/10/05 11:56:04;;;;;;;;;;;;;;;;;;5054677;28;19971;-65
2023/10/05 11:58:32;;;;;;;;;;;;;;;;;;5052955;28;19932;-64
2023/10/05 12:01:03;;;;;;;;;;;;;;;;;;5054428;28;19927;-64
2023/10/05 12:03:29;;;;;;;;;;;;;;;;;;5054305;28;19924;-65
2023/10/05 12:06:00;;;;;;;;;;;;;;;;;;5053733;28;19927;-64
2023/10/05 12:08:28;;;;;;;;;;;;;;;;;;5054596;28;19932;-64
2023/10/05 12:10:58;;;;;;;;;;;;;;;;;;5053999;28;19994;-65
2023/10/05 12:13:24;;;;;;;;;;;;;;;;;;5052868;28;19924;-65
2023/10/05 12:15:51;;;;;;;;;;;;;;;;;;5053849;28;20389;-64
2023/10/05 12:18:17;;;;;;;;;;;;;;;;;;5053891;28;20443;-65
2023/10/05 12:20:43;;;;;;;;;;;;;;;;;;5053996;28;20015;-64
2023/10/05 12:23:12;;;;;;;;;;;;;;;;;;5052333;28;19921;-64
2023/10/05 12:25:38;;;;;;;;;;;;;;;;;;5052322;28;19921;-64
2023/10/05 12:28:04;;;;;;;;;;;;;;;;;;5053706;28;20019;-64
2023/10/05 12:30:31;;;;;;;;;;;;;;;;;;5053489;28;19971;-65
2023/10/05 12:32:57;;;;;;;;;;;;;;;;;;5053904;28;19989;-64
2023/10/05 12:35:23;;;;;;;;;;;;;;;;;;5053536;28;20302;-64
2023/10/05 12:37:49;;;;;;;;;;;;;;;;;;5053610;28;20267;-64
2023/10/05 12:40:18;;;;;;;;;;;;;;;;;;5053647;28;19920;-64
2023/10/05 12:42:44;;;;;;;;;;;;;;;;;;5053412;28;20031;-65
2023/10/05 12:45:11;;;;;;;;;;;;;;;;;;5051872;28;20008;-65
2023/10/05 12:47:37;;;;;;;;;;;;;;;;;;5053645;28;20348;-65
2023/10/05 12:50:03;;;;;;;;;;;;;;;;;;5053251;28;20358;-65
2023/10/05 12:52:29;;;;;;;;;;;;;;;;;;5053379;28;19931;-65
2023/10/05 12:54:56;;;;;;;;;;;;;;;;;;5052128;28;19964;-65
2023/10/05 12:57:22;;;;;;;;;;;;;;;;;;5053282;28;19963;-65
2023/10/05 12:59:49;;;;;;;;;;;;;;;;;;5053545;28;19974;-65
2023/10/05 13:02:15;;;;;;;;;;;;;;;;;;5053350;28;19924;-65
2023/10/05 13:04:42;;;;;;;;;;;;;;;;;;5051839;28;19920;-64
2023/10/05 13:07:07;;;;;;;;;;;;;;;;;;5053279;28;19921;-64
2023/10/05 13:09:34;;;;;;;;;;;;;;;;;;5068746;28;19925;-64
2023/10/05 13:12:08;;;;;;;;;;;;;;;;;;5053032;28;20263;-64
2023/10/05 13:14:34;;;;;;;;;;;;;;;;;;5053040;28;20017;-64
2023/10/05 13:17:00;;;;;;;;;;;;;;;;;;5050809;28;19960;-64
2023/10/05 13:19:26;;;;;;;;;;;;;;;;;;5052841;28;20413;-64
2023/10/05 13:21:52;;;;;;;;;;;;;;;;;;5051266;28;20007;-64
2023/10/05 13:24:18;;;;;;;;;;;;;;;;;;5052523;28;20285;-64
2023/10/05 13:26:44;;;;;;;;;;;;;;;;;;5052870;28;19947;-64
2023/10/05 13:29:11;;;;;;;;;;;;;;;;;;5053133;28;20343;-64
2023/10/05 13:31:38;;;;;;;;;;;;;;;;;;5052863;28;20290;-64
2023/10/05 13:34:09;;;;;;;;;;;;;;;;;;5052485;28;20251;-64
2023/10/05 13:36:35;;;;;;;;;;;;;;;;;;5052766;28;19921;-64
2023/10/05 13:39:09;;;;;;;;;;;;;;;;;;5052489;28;20283;-64
2023/10/05 13:41:36;;;;;;;;;;;;;;;;;;5051583;28;19978;-64
2023/10/05 13:44:02;;;;;;;;;;;;;;;;;;5051030;28;19929;-63
2023/10/05 13:46:35;;;;;;;;;;;;;;;;;;5052366;28;19927;-64
2023/10/05 13:49:01;;;;;;;;;;;;;;;;;;5052462;28;19925;-64
2023/10/05 13:51:33;;;;;;;;;;;;;;;;;;5052144;28;19932;-64
2023/10/05 13:54:02;;;;;;;;;;;;;;;;;;5032237;28;19925;-64
2023/10/05 13:56:28;;;;;;;;;;;;;;;;;;5030904;28;20334;-64
2023/10/05 13:58:57;;;;;;;;;;;;;;;;;;5032290;28;20048;-65
2023/10/05 14:01:23;;;;;;;;;;;;;;;;;;5032428;28;19947;-64
2023/10/05 14:03:51;;;;;;;;;;;;;;;;;;5032085;28;19937;-65
2023/10/05 14:06:17;;;;;;;;;;;;;;;;;;5032189;28;19964;-65
2023/10/05 14:08:46;;;;;;;;;;;;;;;;;;5030499;28;20480;-64
2023/10/05 14:11:12;;;;;;;;;;;;;;;;;;5032217;28;20386;-65
2023/10/05 14:13:38;;;;;;;;;;;;;;;;;;5030651;28;19944;-65
2023/10/05 14:16:04;;;;;;;;;;;;;;;;;;5031665;28;20645;-64
2023/10/05 14:18:30;;;;;;;;;;;;;;;;;;5051005;28;19933;-64
2023/10/05 14:20:56;;;;;;;;;;;;;;;;;;5066541;28;19970;-64
2023/10/05 14:23:24;;;;;;;;;;;;;;;;;;5051208;28;19925;-64
2023/10/05 14:25:50;;;;;;;;;;;;;;;;;;5049865;28;20424;-64
2023/10/05 14:28:20;;;;;;;;;;;;;;;;;;5053071;28;19924;-64
2023/10/05 14:30:47;;;;;;;;;;;;;;;;;;5055017;28;20011;-65
2023/10/05 14:33:17;;;;;;;;;;;;;;;;;;5054746;28;20439;-64
2023/10/05 14:35:42;;;;;;;;;;;;;;;;;;5055097;28;19931;-64
2023/10/05 14:38:15;;;;;;;;;;;;;;;;;;5055292;28;20336;-64
2023/10/05 14:40:41;;;;;;;;;;;;;;;;;;5054991;28;19920;-64
2023/10/05 14:43:08;;;;;;;;;;;;;;;;;;5054899;28;19971;-64
2023/10/05 14:45:34;;;;;;;;;;;;;;;;;;5055092;28;19924;-64
2023/10/05 14:48:04;;;;;;;;;;;;;;;;;;5054535;28;20366;-64
2023/10/05 14:50:32;;;;;;;;;;;;;;;;;;5055766;28;20003;-63
2023/10/05 14:52:59;;;;;;;;;;;;;;;;;;5055700;28;19921;-63
2023/10/05 14:55:27;;;;;;;;;;;;;;;;;;5055272;28;19925;-63
2023/10/05 14:57:55;;;;;;;;;;;;;;;;;;5054052;28;19968;-65
2023/10/05 15:00:23;;;;;;;;;;;;;;;;;;5055388;28;19921;-64
2023/10/05 15:02:49;;;;;;;;;;;;;;;;;;5055594;28;19950;-64
2023/10/05 15:05:15;;;;;;;;;;;;;;;;;;5054230;28;20422;-64
2023/10/05 15:07:41;;;;;;;;;;;;;;;;;;5053916;28;19928;-65
2023/10/05 15:10:15;;;;;;;;;;;;;;;;;;5055403;28;19929;-65
2023/10/05 15:12:41;;;;;;;;;;;;;;;;;;5055420;28;19949;-64
2023/10/05 15:15:09;;;;;;;;;;;;;;;;;;5055145;28;20270;-65
2023/10/05 15:17:35;;;;;;;;;;;;;;;;;;5055360;28;20019;-65
2023/10/05 15:20:01;;;;;;;;;;;;;;;;;;5055166;28;20074;-65
2023/10/05 15:22:27;;;;;;;;;;;;;;;;;;5055228;28;19925;-65
2023/10/05 15:24:54;;;;;;;;;;;;;;;;;;5053807;28;19921;-64
2023/10/05 15:27:20;;;;;;;;;;;;;;;;;;5055076;28;20287;-64
2023/10/05 15:29:46;;;;;;;;;;;;;;;;;;5054867;28;19935;-64
2023/10/05 15:32:12;;;;;;;;;;;;;;;;;;5055307;28;19928;-65
2023/10/05 15:34:39;;;;;;;;;;;;;;;;;;5054652;28;19927;-65
2023/10/05 15:37:05;;;;;;;;;;;;;;;;;;5054705;28;19929;-65
2023/10/05 15:39:35;;;;;;;;;;;;;;;;;;5053617;28;19921;-65
2023/10/05 15:42:04;;;;;;;;;;;;;;;;;;5054590;28;20417;-64
2023/10/05 15:44:30;;;;;;;;;;;;;;;;;;5053451;28;19921;-64
2023/10/05 15:46:56;;;;;;;;;;;;;;;;;;5054453;28;20335;-64
2023/10/05 15:49:22;;;;;;;;;;;;;;;;;;5054704;28;19925;-65
2023/10/05 15:51:48;;;;;;;;;;;;;;;;;;5054541;28;19921;-65
2023/10/05 15:54:14;;;;;;;;;;;;;;;;;;5054303;28;20377;-65
2023/10/05 15:56:40;;;;;;;;;;;;;;;;;;5052972;28;20011;-65
2023/10/05 15:59:08;;;;;;;;;;;;;;;;;;5054259;28;19982;-65
2023/10/05 16:01:34;;;;;;;;;;;;;;;;;;5037325;28;20365;-65
2023/10/05 16:04:09;;;;;;;;;;;;;;;;;;5034340;28;19925;-65
2023/10/05 16:06:35;;;;;;;;;;;;;;;;;;5034709;28;19921;-65
2023/10/05 16:09:01;;;;;;;;;;;;;;;;;;5034425;28;19928;-65
2023/10/05 16:11:27;;;;;;;;;;;;;;;;;;5032863;28;19932;-65
2023/10/05 16:13:53;;;;;;;;;;;;;;;;;;5034102;28;20393;-65
2023/10/05 16:16:19;;;;;;;;;;;;;;;;;;5032213;28;19929;-65
2023/10/05 16:18:45;;;;;;;;;;;;;;;;;;5033420;28;20033;-65
2023/10/05 16:21:11;;;;;;;;;;;;;;;;;;5033678;28;20417;-65
2023/10/05 16:23:39;;;;;;;;;;;;;;;;;;5033471;28;19927;-65
2023/10/05 16:26:06;;;;;;;;;;;;;;;;;;5031620;28;19921;-65
2023/10/05 16:28:34;;;;;;;;;;;;;;;;;;5033115;28;20378;-66
2023/10/05 16:31:00;;;;;;;;;;;;;;;;;;5031898;28;20648;-66
2023/10/05 16:33:26;;;;;;;;;;;;;;;;;;5032235;28;20278;-65
2023/10/05 16:35:54;;;;;;;;;;;;;;;;;;5033203;28;19927;-65
2023/10/05 16:38:23;;;;;;;;;;;;;;;;;;5033047;28;19983;-65
2023/10/05 16:40:49;;;;;;;;;;;;;;;;;;5033367;28;19922;-65
2023/10/05 16:43:14;;;;;;;;;;;;;;;;;;5034000;28;19925;-65
2023/10/05 16:45:40;;;;;;;;;;;;;;;;;;5033694;28;19964;-65
2023/10/05 16:48:06;;;;;;;;;;;;;;;;;;5033851;28;19925;-65
2023/10/05 16:50:33;;;;;;;;;;;;;;;;;;5033605;28;19921;-65
2023/10/05 16:52:59;;;;;;;;;;;;;;;;;;5045531;28;19924;-65
2023/10/05 16:55:25;;;;;;;;;;;;;;;;;;5053133;28;19973;-65
2023/10/05 16:57:51;;;;;;;;;;;;;;;;;;5053110;28;19925;-65
2023/10/05 17:00:17;;;;;;;;;;;;;;;;;;5051786;28;19931;-65
2023/10/05 17:02:44;;;;;;;;;;;;;;;;;;5051840;28;19921;-65
2023/10/05 17:05:13;;;;;;;;;;;;;;;;;;5053358;28;19971;-65
2023/10/05 17:07:39;;;;;;;;;;;;;;;;;;5068317;28;19924;-65
2023/10/05 17:10:04;;;;;;;;;;;;;;;;;;5053342;28;19921;-65